Metar GG30 METAR message from awiacja.imgw.pl Metar G30 EPWR METAR EPWR 240830Z 28006KT 9999 SCT009 15/12 Q1014 =